sensor_id;sensor_type;location;lat;lon;timestamp;P1;durP1;ratioP1;P2;durP2;ratioP2
22650;SDS011;11492;42.646;23.400;2023-09-18T00:01:04;25.23;;;15.52;;
22650;SDS011;11492;42.646;23.400;2023-09-18T00:03:37;25.17;;;15.93;;
22650;SDS011;11492;42.646;23.400;2023-09-18T00:06:03;29.58;;;16.83;;
22650;SDS011;11492;42.646;23.400;2023-09-18T00:08:31;27.48;;;17.55;;
22650;SDS011;11492;42.646;23.400;2023-09-18T00:11:04;24.92;;;15.30;;
22650;SDS011;11492;42.646;23.400;2023-09-18T00:13:35;22.45;;;15.07;;
22650;SDS011;11492;42.646;23.400;2023-09-18T00:16:06;35.08;;;16.05;;
22650;SDS011;11492;42.646;23.400;2023-09-18T00:18:36;25.83;;;16.67;;
22650;SDS011;11492;42.646;23.400;2023-09-18T00:21:03;30.70;;;17.88;;
22650;SDS011;11492;42.646;23.400;2023-09-18T00:23:37;28.02;;;16.50;;
22650;SDS011;11492;42.646;23.400;2023-09-18T00:26:05;24.23;;;16.92;;
22650;SDS011;11492;42.646;23.400;2023-09-18T00:28:37;29.42;;;21.83;;
22650;SDS011;11492;42.646;23.400;2023-09-18T00:33:38;35.38;;;23.02;;
22650;SDS011;11492;42.646;23.400;2023-09-18T00:36:08;35.40;;;23.10;;
22650;SDS011;11492;42.646;23.400;2023-09-18T00:38:41;38.80;;;24.77;;
22650;SDS011;11492;42.646;23.400;2023-09-18T00:41:10;30.63;;;24.08;;
22650;SDS011;11492;42.646;23.400;2023-09-18T00:43:38;36.50;;;25.13;;
22650;SDS011;11492;42.646;23.400;2023-09-18T00:46:11;35.30;;;25.52;;
22650;SDS011;11492;42.646;23.400;2023-09-18T00:48:46;32.40;;;25.35;;
22650;SDS011;11492;42.646;23.400;2023-09-18T00:51:16;30.48;;;23.60;;
22650;SDS011;11492;42.646;23.400;2023-09-18T00:56:21;29.52;;;23.55;;
22650;SDS011;11492;42.646;23.400;2023-09-18T00:58:52;38.95;;;25.08;;
22650;SDS011;11492;42.646;23.400;2023-09-18T01:01:22;41.55;;;23.50;;
22650;SDS011;11492;42.646;23.400;2023-09-18T01:03:56;32.95;;;23.48;;
22650;SDS011;11492;42.646;23.400;2023-09-18T01:06:28;28.43;;;21.93;;
22650;SDS011;11492;42.646;23.400;2023-09-18T01:08:59;32.97;;;22.42;;
22650;SDS011;11492;42.646;23.400;2023-09-18T01:14:53;27.17;;;18.63;;
22650;SDS011;11492;42.646;23.400;2023-09-18T01:17:33;22.45;;;17.88;;
22650;SDS011;11492;42.646;23.400;2023-09-18T01:20:10;27.90;;;16.75;;
22650;SDS011;11492;42.646;23.400;2023-09-18T01:22:39;21.17;;;15.73;;
22650;SDS011;11492;42.646;23.400;2023-09-18T01:25:09;22.52;;;14.98;;
22650;SDS011;11492;42.646;23.400;2023-09-18T01:27:37;26.08;;;15.45;;
22650;SDS011;11492;42.646;23.400;2023-09-18T01:30:06;20.83;;;15.55;;
22650;SDS011;11492;42.646;23.400;2023-09-18T01:32:37;26.63;;;15.52;;
22650;SDS011;11492;42.646;23.400;2023-09-18T01:35:05;20.90;;;14.73;;
22650;SDS011;11492;42.646;23.400;2023-09-18T01:37:37;22.60;;;14.82;;
22650;SDS011;11492;42.646;23.400;2023-09-18T01:40:10;21.40;;;14.93;;
22650;SDS011;11492;42.646;23.400;2023-09-18T01:42:39;23.27;;;15.27;;
22650;SDS011;11492;42.646;23.400;2023-09-18T01:45:10;19.65;;;14.90;;
22650;SDS011;11492;42.646;23.400;2023-09-18T01:47:39;22.25;;;15.07;;
22650;SDS011;11492;42.646;23.400;2023-09-18T01:50:09;23.02;;;15.40;;
22650;SDS011;11492;42.646;23.400;2023-09-18T01:52:43;21.33;;;15.20;;
22650;SDS011;11492;42.646;23.400;2023-09-18T01:55:13;20.38;;;15.40;;
22650;SDS011;11492;42.646;23.400;2023-09-18T01:57:41;20.00;;;14.73;;
22650;SDS011;11492;42.646;23.400;2023-09-18T02:00:11;23.98;;;15.30;;
22650;SDS011;11492;42.646;23.400;2023-09-18T02:02:38;23.50;;;16.35;;
22650;SDS011;11492;42.646;23.400;2023-09-18T02:05:10;23.83;;;15.88;;
22650;SDS011;11492;42.646;23.400;2023-09-18T02:07:41;21.00;;;15.43;;
22650;SDS011;11492;42.646;23.400;2023-09-18T02:10:15;20.40;;;16.63;;
22650;SDS011;11492;42.646;23.400;2023-09-18T02:12:43;21.65;;;16.05;;
22650;SDS011;11492;42.646;23.400;2023-09-18T02:15:11;20.15;;;16.23;;
22650;SDS011;11492;42.646;23.400;2023-09-18T02:17:42;20.67;;;15.70;;
22650;SDS011;11492;42.646;23.400;2023-09-18T02:20:13;22.80;;;15.82;;
22650;SDS011;11492;42.646;23.400;2023-09-18T02:22:44;21.02;;;14.48;;
22650;SDS011;11492;42.646;23.400;2023-09-18T02:25:15;18.77;;;14.68;;
22650;SDS011;11492;42.646;23.400;2023-09-18T02:27:46;20.58;;;15.02;;
22650;SDS011;11492;42.646;23.400;2023-09-18T02:30:15;20.02;;;14.43;;
22650;SDS011;11492;42.646;23.400;2023-09-18T02:32:43;21.85;;;13.93;;
22650;SDS011;11492;42.646;23.400;2023-09-18T02:35:16;16.65;;;13.43;;
22650;SDS011;11492;42.646;23.400;2023-09-18T02:37:45;25.02;;;13.70;;
22650;SDS011;11492;42.646;23.400;2023-09-18T02:40:13;24.75;;;13.00;;
22650;SDS011;11492;42.646;23.400;2023-09-18T02:42:44;17.02;;;13.10;;
22650;SDS011;11492;42.646;23.400;2023-09-18T02:45:12;18.55;;;13.15;;
22650;SDS011;11492;42.646;23.400;2023-09-18T02:47:40;24.42;;;14.05;;
22650;SDS011;11492;42.646;23.400;2023-09-18T02:50:10;21.95;;;13.35;;
22650;SDS011;11492;42.646;23.400;2023-09-18T02:52:40;27.75;;;14.55;;
22650;SDS011;11492;42.646;23.400;2023-09-18T02:55:08;19.00;;;14.70;;
22650;SDS011;11492;42.646;23.400;2023-09-18T02:57:37;19.52;;;14.13;;
22650;SDS011;11492;42.646;23.400;2023-09-18T03:00:11;23.33;;;14.10;;
22650;SDS011;11492;42.646;23.400;2023-09-18T03:02:42;24.58;;;14.48;;
22650;SDS011;11492;42.646;23.400;2023-09-18T03:05:12;22.08;;;14.38;;
22650;SDS011;11492;42.646;23.400;2023-09-18T03:07:38;20.30;;;14.60;;
22650;SDS011;11492;42.646;23.400;2023-09-18T03:10:12;21.52;;;14.02;;
22650;SDS011;11492;42.646;23.400;2023-09-18T03:12:47;20.83;;;14.40;;
22650;SDS011;11492;42.646;23.400;2023-09-18T03:15:18;17.67;;;14.25;;
22650;SDS011;11492;42.646;23.400;2023-09-18T03:17:49;19.58;;;14.60;;
22650;SDS011;11492;42.646;23.400;2023-09-18T03:20:25;22.27;;;14.95;;
22650;SDS011;11492;42.646;23.400;2023-09-18T03:22:57;20.73;;;15.18;;
22650;SDS011;11492;42.646;23.400;2023-09-18T03:25:44;36.00;;;16.05;;
22650;SDS011;11492;42.646;23.400;2023-09-18T03:28:15;26.05;;;17.33;;
22650;SDS011;11492;42.646;23.400;2023-09-18T03:30:45;23.30;;;16.60;;
22650;SDS011;11492;42.646;23.400;2023-09-18T03:33:15;24.50;;;17.33;;
22650;SDS011;11492;42.646;23.400;2023-09-18T03:35:49;21.33;;;16.30;;
22650;SDS011;11492;42.646;23.400;2023-09-18T03:38:22;28.55;;;16.70;;
22650;SDS011;11492;42.646;23.400;2023-09-18T03:40:52;30.08;;;18.00;;
22650;SDS011;11492;42.646;23.400;2023-09-18T03:43:25;23.00;;;16.90;;
22650;SDS011;11492;42.646;23.400;2023-09-18T03:45:55;30.73;;;17.80;;
22650;SDS011;11492;42.646;23.400;2023-09-18T03:48:33;23.02;;;17.27;;
22650;SDS011;11492;42.646;23.400;2023-09-18T03:51:05;26.48;;;18.90;;
22650;SDS011;11492;42.646;23.400;2023-09-18T03:53:35;30.17;;;19.83;;
22650;SDS011;11492;42.646;23.400;2023-09-18T03:56:04;26.23;;;18.67;;
22650;SDS011;11492;42.646;23.400;2023-09-18T03:58:33;28.10;;;18.92;;
22650;SDS011;11492;42.646;23.400;2023-09-18T04:01:03;32.00;;;19.33;;
22650;SDS011;11492;42.646;23.400;2023-09-18T04:03:31;28.90;;;19.38;;
22650;SDS011;11492;42.646;23.400;2023-09-18T04:06:04;31.60;;;21.03;;
22650;SDS011;11492;42.646;23.400;2023-09-18T04:08:35;31.73;;;20.10;;
22650;SDS011;11492;42.646;23.400;2023-09-18T04:11:06;41.47;;;21.10;;
22650;SDS011;11492;42.646;23.400;2023-09-18T04:13:35;39.20;;;20.58;;
22650;SDS011;11492;42.646;23.400;2023-09-18T04:16:05;34.03;;;20.42;;
22650;SDS011;11492;42.646;23.400;2023-09-18T04:18:38;33.22;;;21.05;;
22650;SDS011;11492;42.646;23.400;2023-09-18T04:21:11;29.38;;;20.77;;
22650;SDS011;11492;42.646;23.400;2023-09-18T04:23:45;29.92;;;21.17;;
22650;SDS011;11492;42.646;23.400;2023-09-18T04:26:15;28.42;;;19.92;;
22650;SDS011;11492;42.646;23.400;2023-09-18T04:28:45;28.33;;;20.40;;
22650;SDS011;11492;42.646;23.400;2023-09-18T04:31:19;28.17;;;19.88;;
22650;SDS011;11492;42.646;23.400;2023-09-18T04:33:52;36.35;;;21.98;;
22650;SDS011;11492;42.646;23.400;2023-09-18T04:36:23;31.70;;;22.02;;
22650;SDS011;11492;42.646;23.400;2023-09-18T04:38:51;35.95;;;22.23;;
22650;SDS011;11492;42.646;23.400;2023-09-18T04:41:21;36.58;;;21.33;;
22650;SDS011;11492;42.646;23.400;2023-09-18T04:43:49;33.63;;;21.30;;
22650;SDS011;11492;42.646;23.400;2023-09-18T04:46:19;31.00;;;21.17;;
22650;SDS011;11492;42.646;23.400;2023-09-18T04:48:53;37.00;;;21.35;;
22650;SDS011;11492;42.646;23.400;2023-09-18T04:51:24;33.08;;;20.48;;
22650;SDS011;11492;42.646;23.400;2023-09-18T04:53:53;39.95;;;21.27;;
22650;SDS011;11492;42.646;23.400;2023-09-18T04:56:24;38.03;;;21.30;;
22650;SDS011;11492;42.646;23.400;2023-09-18T04:58:57;31.98;;;20.80;;
22650;SDS011;11492;42.646;23.400;2023-09-18T05:01:25;34.58;;;21.13;;
22650;SDS011;11492;42.646;23.400;2023-09-18T05:03:57;37.90;;;21.65;;
22650;SDS011;11492;42.646;23.400;2023-09-18T05:06:28;38.17;;;22.65;;
22650;SDS011;11492;42.646;23.400;2023-09-18T05:08:59;38.35;;;23.17;;
22650;SDS011;11492;42.646;23.400;2023-09-18T05:11:27;37.40;;;23.08;;
22650;SDS011;11492;42.646;23.400;2023-09-18T05:13:59;39.20;;;24.05;;
22650;SDS011;11492;42.646;23.400;2023-09-18T05:16:34;37.67;;;22.60;;
22650;SDS011;11492;42.646;23.400;2023-09-18T05:19:07;46.03;;;22.63;;
22650;SDS011;11492;42.646;23.400;2023-09-18T05:21:41;34.55;;;22.63;;
22650;SDS011;11492;42.646;23.400;2023-09-18T05:24:12;41.90;;;23.33;;
22650;SDS011;11492;42.646;23.400;2023-09-18T05:26:42;38.88;;;23.67;;
22650;SDS011;11492;42.646;23.400;2023-09-18T05:29:15;33.42;;;24.17;;
22650;SDS011;11492;42.646;23.400;2023-09-18T05:31:45;34.65;;;23.98;;
22650;SDS011;11492;42.646;23.400;2023-09-18T05:34:19;38.00;;;27.65;;
22650;SDS011;11492;42.646;23.400;2023-09-18T05:36:52;41.00;;;26.77;;
22650;SDS011;11492;42.646;23.400;2023-09-18T05:39:21;39.88;;;26.40;;
22650;SDS011;11492;42.646;23.400;2023-09-18T05:41:54;35.00;;;25.23;;
22650;SDS011;11492;42.646;23.400;2023-09-18T05:44:23;35.05;;;25.25;;
22650;SDS011;11492;42.646;23.400;2023-09-18T05:46:56;42.22;;;24.85;;
22650;SDS011;11492;42.646;23.400;2023-09-18T05:49:31;38.30;;;26.25;;
22650;SDS011;11492;42.646;23.400;2023-09-18T05:52:05;49.17;;;26.25;;
22650;SDS011;11492;42.646;23.400;2023-09-18T05:54:38;36.97;;;23.50;;
22650;SDS011;11492;42.646;23.400;2023-09-18T05:57:11;39.47;;;24.23;;
22650;SDS011;11492;42.646;23.400;2023-09-18T05:59:42;42.22;;;24.63;;
22650;SDS011;11492;42.646;23.400;2023-09-18T06:02:13;32.38;;;20.10;;
22650;SDS011;11492;42.646;23.400;2023-09-18T06:04:44;32.03;;;18.20;;
22650;SDS011;11492;42.646;23.400;2023-09-18T06:07:11;31.15;;;16.98;;
22650;SDS011;11492;42.646;23.400;2023-09-18T06:09:40;28.77;;;15.95;;
22650;SDS011;11492;42.646;23.400;2023-09-18T06:12:09;24.88;;;16.08;;
22650;SDS011;11492;42.646;23.400;2023-09-18T06:14:41;28.25;;;17.05;;
22650;SDS011;11492;42.646;23.400;2023-09-18T06:19:43;36.97;;;16.98;;
22650;SDS011;11492;42.646;23.400;2023-09-18T06:22:14;29.38;;;17.30;;
22650;SDS011;11492;42.646;23.400;2023-09-18T06:24:43;31.35;;;17.85;;
22650;SDS011;11492;42.646;23.400;2023-09-18T06:27:16;30.00;;;18.58;;
22650;SDS011;11492;42.646;23.400;2023-09-18T06:29:46;42.38;;;18.45;;
22650;SDS011;11492;42.646;23.400;2023-09-18T06:32:16;32.78;;;19.08;;
22650;SDS011;11492;42.646;23.400;2023-09-18T06:34:50;30.77;;;19.20;;
22650;SDS011;11492;42.646;23.400;2023-09-18T06:37:21;34.13;;;20.08;;
22650;SDS011;11492;42.646;23.400;2023-09-18T06:39:51;31.67;;;19.77;;
22650;SDS011;11492;42.646;23.400;2023-09-18T06:42:20;36.15;;;20.38;;
22650;SDS011;11492;42.646;23.400;2023-09-18T06:44:50;33.55;;;20.48;;
22650;SDS011;11492;42.646;23.400;2023-09-18T06:47:18;31.88;;;20.15;;
22650;SDS011;11492;42.646;23.400;2023-09-18T06:49:51;32.00;;;20.13;;
22650;SDS011;11492;42.646;23.400;2023-09-18T06:52:22;32.17;;;19.48;;
22650;SDS011;11492;42.646;23.400;2023-09-18T06:54:52;28.00;;;18.95;;
22650;SDS011;11492;42.646;23.400;2023-09-18T06:57:20;25.33;;;18.13;;
22650;SDS011;11492;42.646;23.400;2023-09-18T06:59:54;27.60;;;18.08;;
22650;SDS011;11492;42.646;23.400;2023-09-18T07:02:26;27.08;;;18.02;;
22650;SDS011;11492;42.646;23.400;2023-09-18T07:04:54;26.15;;;18.00;;
22650;SDS011;11492;42.646;23.400;2023-09-18T07:07:29;34.75;;;18.17;;
22650;SDS011;11492;42.646;23.400;2023-09-18T07:12:29;27.02;;;17.65;;
22650;SDS011;11492;42.646;23.400;2023-09-18T07:14:59;26.60;;;17.67;;
22650;SDS011;11492;42.646;23.400;2023-09-18T07:17:29;21.70;;;16.98;;
22650;SDS011;11492;42.646;23.400;2023-09-18T07:20:03;50.75;;;19.83;;
22650;SDS011;11492;42.646;23.400;2023-09-18T07:22:43;27.20;;;17.90;;
22650;SDS011;11492;42.646;23.400;2023-09-18T07:25:14;29.98;;;18.35;;
22650;SDS011;11492;42.646;23.400;2023-09-18T07:27:45;23.97;;;16.53;;
22650;SDS011;11492;42.646;23.400;2023-09-18T07:30:16;25.85;;;17.48;;
22650;SDS011;11492;42.646;23.400;2023-09-18T07:32:47;26.15;;;17.40;;
22650;SDS011;11492;42.646;23.400;2023-09-18T07:35:16;23.23;;;16.95;;
22650;SDS011;11492;42.646;23.400;2023-09-18T07:37:45;26.23;;;17.02;;
22650;SDS011;11492;42.646;23.400;2023-09-18T07:40:15;24.17;;;16.20;;
22650;SDS011;11492;42.646;23.400;2023-09-18T07:42:46;25.88;;;18.25;;
22650;SDS011;11492;42.646;23.400;2023-09-18T07:45:13;25.23;;;16.77;;
22650;SDS011;11492;42.646;23.400;2023-09-18T07:47:46;21.83;;;15.73;;
22650;SDS011;11492;42.646;23.400;2023-09-18T07:50:14;26.63;;;16.67;;
22650;SDS011;11492;42.646;23.400;2023-09-18T07:52:43;23.17;;;15.57;;
22650;SDS011;11492;42.646;23.400;2023-09-18T07:55:13;21.67;;;15.48;;
22650;SDS011;11492;42.646;23.400;2023-09-18T07:57:43;19.70;;;14.10;;
22650;SDS011;11492;42.646;23.400;2023-09-18T08:02:44;23.00;;;13.45;;
22650;SDS011;11492;42.646;23.400;2023-09-18T08:07:47;23.35;;;13.82;;
22650;SDS011;11492;42.646;23.400;2023-09-18T08:10:19;17.02;;;13.15;;
22650;SDS011;11492;42.646;23.400;2023-09-18T08:12:46;22.25;;;13.98;;
22650;SDS011;11492;42.646;23.400;2023-09-18T08:15:15;19.60;;;13.98;;
22650;SDS011;11492;42.646;23.400;2023-09-18T08:17:48;22.58;;;14.05;;
22650;SDS011;11492;42.646;23.400;2023-09-18T08:20:18;22.30;;;13.98;;
22650;SDS011;11492;42.646;23.400;2023-09-18T08:22:47;23.98;;;14.15;;
22650;SDS011;11492;42.646;23.400;2023-09-18T08:25:16;20.83;;;12.82;;
22650;SDS011;11492;42.646;23.400;2023-09-18T08:27:46;19.65;;;13.85;;
22650;SDS011;11492;42.646;23.400;2023-09-18T08:30:18;20.58;;;13.30;;
22650;SDS011;11492;42.646;23.400;2023-09-18T08:32:46;19.55;;;13.30;;
22650;SDS011;11492;42.646;23.400;2023-09-18T08:35:16;18.63;;;13.73;;
22650;SDS011;11492;42.646;23.400;2023-09-18T08:37:50;16.15;;;11.32;;
22650;SDS011;11492;42.646;23.400;2023-09-18T08:40:20;17.33;;;12.10;;
22650;SDS011;11492;42.646;23.400;2023-09-18T08:42:55;16.38;;;11.00;;
22650;SDS011;11492;42.646;23.400;2023-09-18T08:45:33;15.13;;;12.13;;
22650;SDS011;11492;42.646;23.400;2023-09-18T08:48:11;19.20;;;11.73;;
22650;SDS011;11492;42.646;23.400;2023-09-18T08:50:44;20.70;;;12.07;;
22650;SDS011;11492;42.646;23.400;2023-09-18T08:53:13;14.63;;;11.70;;
22650;SDS011;11492;42.646;23.400;2023-09-18T08:55:42;19.58;;;12.20;;
22650;SDS011;11492;42.646;23.400;2023-09-18T08:58:13;18.05;;;11.88;;
22650;SDS011;11492;42.646;23.400;2023-09-18T09:00:44;20.77;;;11.15;;
22650;SDS011;11492;42.646;23.400;2023-09-18T09:03:17;21.25;;;11.85;;
22650;SDS011;11492;42.646;23.400;2023-09-18T09:05:48;19.23;;;11.32;;
22650;SDS011;11492;42.646;23.400;2023-09-18T09:08:13;23.48;;;11.27;;
22650;SDS011;11492;42.646;23.400;2023-09-18T09:10:44;14.20;;;10.73;;
22650;SDS011;11492;42.646;23.400;2023-09-18T09:13:12;18.92;;;12.32;;
22650;SDS011;11492;42.646;23.400;2023-09-18T09:15:47;18.45;;;11.57;;
22650;SDS011;11492;42.646;23.400;2023-09-18T09:21:03;12.57;;;9.52;;
22650;SDS011;11492;42.646;23.400;2023-09-18T09:23:50;17.75;;;10.23;;
22650;SDS011;11492;42.646;23.400;2023-09-18T09:26:24;15.15;;;10.70;;
22650;SDS011;11492;42.646;23.400;2023-09-18T09:28:52;15.18;;;10.52;;
22650;SDS011;11492;42.646;23.400;2023-09-18T09:31:28;13.05;;;8.77;;
22650;SDS011;11492;42.646;23.400;2023-09-18T09:33:57;11.73;;;7.63;;
22650;SDS011;11492;42.646;23.400;2023-09-18T09:36:29;14.98;;;7.70;;
22650;SDS011;11492;42.646;23.400;2023-09-18T09:39:00;12.57;;;8.75;;
22650;SDS011;11492;42.646;23.400;2023-09-18T09:41:31;14.40;;;8.40;;
22650;SDS011;11492;42.646;23.400;2023-09-18T09:43:59;12.25;;;7.68;;
22650;SDS011;11492;42.646;23.400;2023-09-18T09:49:06;13.27;;;8.13;;
22650;SDS011;11492;42.646;23.400;2023-09-18T09:51:32;13.43;;;8.05;;
22650;SDS011;11492;42.646;23.400;2023-09-18T09:54:09;13.55;;;8.27;;
22650;SDS011;11492;42.646;23.400;2023-09-18T09:56:43;14.35;;;8.98;;
22650;SDS011;11492;42.646;23.400;2023-09-18T09:59:17;12.27;;;8.75;;
22650;SDS011;11492;42.646;23.400;2023-09-18T10:01:49;15.10;;;7.95;;
22650;SDS011;11492;42.646;23.400;2023-09-18T10:04:21;10.27;;;7.60;;
22650;SDS011;11492;42.646;23.400;2023-09-18T10:06:55;10.27;;;7.05;;
22650;SDS011;11492;42.646;23.400;2023-09-18T10:09:24;12.40;;;7.60;;
22650;SDS011;11492;42.646;23.400;2023-09-18T10:11:58;13.45;;;7.47;;
22650;SDS011;11492;42.646;23.400;2023-09-18T10:14:29;9.52;;;6.07;;
22650;SDS011;11492;42.646;23.400;2023-09-18T10:17:04;9.07;;;5.93;;
22650;SDS011;11492;42.646;23.400;2023-09-18T10:19:47;10.90;;;5.83;;
22650;SDS011;11492;42.646;23.400;2023-09-18T10:22:44;15.15;;;5.72;;
22650;SDS011;11492;42.646;23.400;2023-09-18T10:27:59;9.20;;;5.88;;
22650;SDS011;11492;42.646;23.400;2023-09-18T10:30:30;12.85;;;5.95;;
22650;SDS011;11492;42.646;23.400;2023-09-18T10:33:05;8.10;;;5.57;;
22650;SDS011;11492;42.646;23.400;2023-09-18T10:35:51;13.82;;;5.80;;
22650;SDS011;11492;42.646;23.400;2023-09-18T10:38:23;17.38;;;5.50;;
22650;SDS011;11492;42.646;23.400;2023-09-18T10:40:50;8.75;;;5.43;;
22650;SDS011;11492;42.646;23.400;2023-09-18T10:43:23;13.63;;;5.50;;
22650;SDS011;11492;42.646;23.400;2023-09-18T10:45:51;7.47;;;4.78;;
22650;SDS011;11492;42.646;23.400;2023-09-18T10:48:25;7.55;;;5.30;;
22650;SDS011;11492;42.646;23.400;2023-09-18T10:50:59;9.30;;;5.30;;
22650;SDS011;11492;42.646;23.400;2023-09-18T10:53:33;7.07;;;4.80;;
22650;SDS011;11492;42.646;23.400;2023-09-18T10:56:05;9.52;;;4.43;;
22650;SDS011;11492;42.646;23.400;2023-09-18T10:58:38;11.18;;;5.30;;
22650;SDS011;11492;42.646;23.400;2023-09-18T11:01:11;9.63;;;4.70;;
22650;SDS011;11492;42.646;23.400;2023-09-18T11:03:49;9.13;;;4.97;;
22650;SDS011;11492;42.646;23.400;2023-09-18T11:06:19;11.95;;;4.82;;
22650;SDS011;11492;42.646;23.400;2023-09-18T11:08:49;8.98;;;5.05;;
22650;SDS011;11492;42.646;23.400;2023-09-18T11:11:29;14.35;;;5.03;;
22650;SDS011;11492;42.646;23.400;2023-09-18T11:14:00;8.90;;;4.88;;
22650;SDS011;11492;42.646;23.400;2023-09-18T11:16:33;8.68;;;5.00;;
22650;SDS011;11492;42.646;23.400;2023-09-18T11:21:34;11.00;;;4.93;;
22650;SDS011;11492;42.646;23.400;2023-09-18T11:24:06;8.60;;;5.00;;
22650;SDS011;11492;42.646;23.400;2023-09-18T11:26:44;13.95;;;4.85;;
22650;SDS011;11492;42.646;23.400;2023-09-18T11:29:16;8.88;;;4.63;;
22650;SDS011;11492;42.646;23.400;2023-09-18T11:31:51;7.82;;;4.07;;
22650;SDS011;11492;42.646;23.400;2023-09-18T11:34:23;7.10;;;4.47;;
22650;SDS011;11492;42.646;23.400;2023-09-18T11:36:54;6.72;;;4.43;;
22650;SDS011;11492;42.646;23.400;2023-09-18T11:39:38;7.03;;;4.60;;
22650;SDS011;11492;42.646;23.400;2023-09-18T11:42:09;9.60;;;4.35;;
22650;SDS011;11492;42.646;23.400;2023-09-18T11:44:41;11.70;;;4.28;;
22650;SDS011;11492;42.646;23.400;2023-09-18T11:47:14;14.95;;;4.55;;
22650;SDS011;11492;42.646;23.400;2023-09-18T11:49:53;13.18;;;4.72;;
22650;SDS011;11492;42.646;23.400;2023-09-18T11:52:29;9.98;;;4.50;;
22650;SDS011;11492;42.646;23.400;2023-09-18T11:55:04;7.57;;;4.32;;
22650;SDS011;11492;42.646;23.400;2023-09-18T11:57:39;9.10;;;4.40;;
22650;SDS011;11492;42.646;23.400;2023-09-18T12:00:18;9.82;;;4.65;;
22650;SDS011;11492;42.646;23.400;2023-09-18T12:02:53;8.57;;;5.00;;
22650;SDS011;11492;42.646;23.400;2023-09-18T12:05:31;9.85;;;4.50;;
22650;SDS011;11492;42.646;23.400;2023-09-18T12:07:57;10.68;;;4.80;;
22650;SDS011;11492;42.646;23.400;2023-09-18T12:10:29;10.35;;;4.30;;
22650;SDS011;11492;42.646;23.400;2023-09-18T12:12:59;13.93;;;4.55;;
22650;SDS011;11492;42.646;23.400;2023-09-18T12:15:28;8.57;;;4.85;;
22650;SDS011;11492;42.646;23.400;2023-09-18T12:20:34;15.93;;;4.40;;
22650;SDS011;11492;42.646;23.400;2023-09-18T12:23:05;9.65;;;4.50;;
22650;SDS011;11492;42.646;23.400;2023-09-18T12:25:37;10.85;;;4.70;;
22650;SDS011;11492;42.646;23.400;2023-09-18T12:28:09;9.50;;;4.75;;
22650;SDS011;11492;42.646;23.400;2023-09-18T12:30:43;11.52;;;4.80;;
22650;SDS011;11492;42.646;23.400;2023-09-18T12:33:17;10.02;;;5.10;;
22650;SDS011;11492;42.646;23.400;2023-09-18T12:35:47;7.80;;;4.70;;
22650;SDS011;11492;42.646;23.400;2023-09-18T12:38:21;7.57;;;4.57;;
22650;SDS011;11492;42.646;23.400;2023-09-18T12:40:54;7.75;;;4.50;;
22650;SDS011;11492;42.646;23.400;2023-09-18T12:43:37;11.65;;;5.30;;
22650;SDS011;11492;42.646;23.400;2023-09-18T12:46:09;10.00;;;5.10;;
22650;SDS011;11492;42.646;23.400;2023-09-18T12:48:40;6.85;;;4.35;;
22650;SDS011;11492;42.646;23.400;2023-09-18T12:51:11;8.23;;;4.60;;
22650;SDS011;11492;42.646;23.400;2023-09-18T12:53:47;9.23;;;4.53;;
22650;SDS011;11492;42.646;23.400;2023-09-18T12:56:34;10.98;;;4.50;;
22650;SDS011;11492;42.646;23.400;2023-09-18T12:59:20;6.78;;;4.50;;
22650;SDS011;11492;42.646;23.400;2023-09-18T13:01:48;8.43;;;5.07;;
22650;SDS011;11492;42.646;23.400;2023-09-18T13:04:18;12.38;;;4.30;;
22650;SDS011;11492;42.646;23.400;2023-09-18T13:07:02;12.25;;;4.68;;
22650;SDS011;11492;42.646;23.400;2023-09-18T13:09:40;9.02;;;4.32;;
22650;SDS011;11492;42.646;23.400;2023-09-18T13:12:11;15.35;;;5.90;;
22650;SDS011;11492;42.646;23.400;2023-09-18T13:15:00;8.88;;;4.57;;
22650;SDS011;11492;42.646;23.400;2023-09-18T13:17:39;9.15;;;4.32;;
22650;SDS011;11492;42.646;23.400;2023-09-18T13:20:16;10.32;;;4.65;;
22650;SDS011;11492;42.646;23.400;2023-09-18T13:22:53;8.75;;;4.50;;
22650;SDS011;11492;42.646;23.400;2023-09-18T13:25:32;8.32;;;4.45;;
22650;SDS011;11492;42.646;23.400;2023-09-18T13:28:06;13.82;;;5.13;;
22650;SDS011;11492;42.646;23.400;2023-09-18T13:30:40;10.38;;;4.65;;
22650;SDS011;11492;42.646;23.400;2023-09-18T13:33:11;7.00;;;4.50;;
22650;SDS011;11492;42.646;23.400;2023-09-18T13:35:42;5.35;;;3.90;;
22650;SDS011;11492;42.646;23.400;2023-09-18T13:38:10;7.80;;;4.68;;
22650;SDS011;11492;42.646;23.400;2023-09-18T13:40:40;12.00;;;4.65;;
22650;SDS011;11492;42.646;23.400;2023-09-18T13:43:13;14.25;;;4.90;;
22650;SDS011;11492;42.646;23.400;2023-09-18T13:45:46;14.85;;;5.57;;
22650;SDS011;11492;42.646;23.400;2023-09-18T13:48:19;11.52;;;6.35;;
22650;SDS011;11492;42.646;23.400;2023-09-18T13:50:52;9.00;;;5.00;;
22650;SDS011;11492;42.646;23.400;2023-09-18T13:53:23;14.55;;;4.82;;
22650;SDS011;11492;42.646;23.400;2023-09-18T13:55:57;8.93;;;4.47;;
22650;SDS011;11492;42.646;23.400;2023-09-18T13:58:26;9.15;;;5.03;;
22650;SDS011;11492;42.646;23.400;2023-09-18T14:00:55;11.18;;;4.90;;
22650;SDS011;11492;42.646;23.400;2023-09-18T14:03:23;6.97;;;4.50;;
22650;SDS011;11492;42.646;23.400;2023-09-18T14:06:07;7.30;;;4.60;;
22650;SDS011;11492;42.646;23.400;2023-09-18T14:08:39;11.35;;;4.20;;
22650;SDS011;11492;42.646;23.400;2023-09-18T14:11:09;9.05;;;4.35;;
22650;SDS011;11492;42.646;23.400;2023-09-18T14:13:38;9.38;;;4.45;;
22650;SDS011;11492;42.646;23.400;2023-09-18T14:16:07;9.38;;;4.47;;
22650;SDS011;11492;42.646;23.400;2023-09-18T14:18:37;15.93;;;5.30;;
22650;SDS011;11492;42.646;23.400;2023-09-18T14:21:05;8.50;;;4.70;;
22650;SDS011;11492;42.646;23.400;2023-09-18T14:23:39;15.13;;;4.93;;
22650;SDS011;11492;42.646;23.400;2023-09-18T14:26:12;14.48;;;4.88;;
22650;SDS011;11492;42.646;23.400;2023-09-18T14:28:43;12.98;;;5.28;;
22650;SDS011;11492;42.646;23.400;2023-09-18T14:31:12;9.52;;;4.78;;
22650;SDS011;11492;42.646;23.400;2023-09-18T14:33:44;15.68;;;4.68;;
22650;SDS011;11492;42.646;23.400;2023-09-18T14:36:15;11.70;;;5.03;;
22650;SDS011;11492;42.646;23.400;2023-09-18T14:38:43;9.40;;;4.65;;
22650;SDS011;11492;42.646;23.400;2023-09-18T14:41:15;10.27;;;4.85;;
22650;SDS011;11492;42.646;23.400;2023-09-18T14:43:45;17.92;;;5.05;;
22650;SDS011;11492;42.646;23.400;2023-09-18T14:46:14;18.02;;;6.00;;
22650;SDS011;11492;42.646;23.400;2023-09-18T14:48:46;15.20;;;7.70;;
22650;SDS011;11492;42.646;23.400;2023-09-18T14:51:17;12.95;;;4.95;;
22650;SDS011;11492;42.646;23.400;2023-09-18T14:53:50;19.45;;;5.47;;
22650;SDS011;11492;42.646;23.400;2023-09-18T14:56:23;9.05;;;5.38;;
22650;SDS011;11492;42.646;23.400;2023-09-18T14:58:54;8.20;;;4.72;;
22650;SDS011;11492;42.646;23.400;2023-09-18T15:01:25;15.90;;;5.32;;
22650;SDS011;11492;42.646;23.400;2023-09-18T15:03:55;11.20;;;5.40;;
22650;SDS011;11492;42.646;23.400;2023-09-18T15:06:28;11.27;;;4.75;;
22650;SDS011;11492;42.646;23.400;2023-09-18T15:08:59;16.27;;;5.45;;
22650;SDS011;11492;42.646;23.400;2023-09-18T15:11:31;13.45;;;5.07;;
22650;SDS011;11492;42.646;23.400;2023-09-18T15:14:02;11.13;;;5.47;;